Time;durP1;ratioP1;P1;durP2;ratioP2;P2;SDS_P1;SDS_P2;PMS_P1;PMS_P2;Temp;Humidity;BMP_temperature;BMP_pressure;BME280_temperature;BME280_humidity;BME280_pressure;Samples;Min_cycle;Max_cycle;Signal;HPM_P1;HPM_P2
2022/10/12 03:38:34;;;;;;;;;;;;;;;6.48;100.00;100314.84;5003535;28;19975;-87
2022/10/12 03:41:21;;;;;;;;;;;;;;;;;;;;;
2022/10/12 03:43:47;;;;;;;;;;;;;;;6.51;100.00;100315.66;5005061;28;19932;-89
2022/10/12 03:46:17;;;;;;;;;;;;;;;6.53;100.00;100327.03;4987008;28;20016;-88
2022/10/12 03:48:45;;;;;;;;;;;;;;;6.54;100.00;100317.34;5004523;28;19918;-89
2022/10/12 03:51:23;;;;;;;;;;;;;;;6.55;100.00;100316.47;5003328;28;19965;-90
2022/10/12 03:53:49;;;;;;;;;;;;;;;6.58;100.00;100310.28;4986454;28;19917;-91
2022/10/12 03:56:16;;;;;;;;;;;;;;;6.58;100.00;100311.13;5006328;28;19940;-91
2022/10/12 03:58:52;;;;;;;;;;;;;;;;;;;;;
2022/10/12 04:01:27;;;;;;;;;;;;;;;;;;;;;
2022/10/12 04:03:53;;;;;;;;;;;;;;;6.65;100.00;100317.16;5004548;28;19922;-91
2022/10/12 04:06:18;;;;;;;;;;;;;;;6.65;100.00;100310.16;5003725;28;19917;-88
2022/10/12 04:08:43;;;;;;;;;;;;;;;6.67;100.00;100310.09;5004000;28;19917;-90
2022/10/12 04:11:09;;;;;;;;;;;;;;;6.69;100.00;100314.44;5004093;28;20262;-89
2022/10/12 04:13:34;;;;;;;;;;;;;;;6.70;100.00;100310.03;5004371;28;20312;-90
2022/10/12 04:16:03;;;;;;;;;;;;;;;6.71;100.00;100306.53;5004262;28;19924;-90
2022/10/12 04:18:28;;;;;;;;;;;;;;;6.72;100.00;100314.38;5003181;28;20392;-89
2022/10/12 04:20:53;;;;;;;;;;;;;;;6.72;100.00;100309.13;5003452;28;19945;-88
2022/10/12 04:23:18;;;;;;;;;;;;;;;6.76;100.00;100309.06;4986034;28;19926;-89
2022/10/12 04:25:44;;;;;;;;;;;;;;;6.77;100.00;100310.81;4986411;28;19925;-89
2022/10/12 04:28:09;;;;;;;;;;;;;;;6.75;100.00;100309.94;5004047;28;19921;-89
2022/10/12 04:30:34;;;;;;;;;;;;;;;6.80;100.00;100313.41;5003774;28;19971;-89
2022/10/12 04:32:59;;;;;;;;;;;;;;;6.79;100.00;100316.91;4986414;28;19913;-89
2022/10/12 04:35:25;;;;;;;;;;;;;;;6.81;100.00;100317.75;5002567;28;20372;-92
2022/10/12 04:37:50;;;;;;;;;;;;;;;6.82;100.00;100311.59;4992447;28;19928;-89
2022/10/12 04:40:15;;;;;;;;;;;;;;;6.85;100.00;100317.66;4994744;28;20300;-90
2022/10/12 04:42:57;;;;;;;;;;;;;;;6.83;100.00;100308.03;4995430;28;20276;-92
2022/10/12 04:45:23;;;;;;;;;;;;;;;6.84;100.00;100318.53;5011517;28;19921;-88
2022/10/12 04:47:53;;;;;;;;;;;;;;;6.87;100.00;100317.63;5012077;28;20288;-92
2022/10/12 04:50:19;;;;;;;;;;;;;;;6.87;100.00;100318.50;4993166;28;19988;-90
2022/10/12 04:52:44;;;;;;;;;;;;;;;6.91;100.00;100324.59;5012049;28;20357;-89
2022/10/12 07:43:18;;;;;;;;;;;;;;;7.69;100.00;100359.03;5030414;23;20300;-92
2022/10/12 07:45:44;;;;;;;;;;;;;;;7.67;100.00;100358.16;4994987;28;19933;-89
2022/10/12 07:48:09;;;;;;;;;;;;;;;7.67;100.00;100358.16;4994682;28;19918;-88
2022/10/12 07:50:34;;;;;;;;;;;;;;;7.68;100.00;100349.38;4974121;28;20373;-88
2022/10/12 07:53:00;;;;;;;;;;;;;;;7.74;100.00;100351.88;4972909;28;19925;-88
2022/10/12 07:55:25;;;;;;;;;;;;;;;7.70;100.00;100342.28;4975722;28;20444;-88
2022/10/12 07:57:50;;;;;;;;;;;;;;;8.03;100.00;100350.34;4972741;28;19919;-87
2022/10/12 08:00:16;;;;;;;;;;;;;;;8.18;100.00;100352.63;4974837;28;19922;-87
2022/10/12 08:02:42;;;;;;;;;;;;;;;8.00;100.00;100361.81;4973828;28;19918;-87
2022/10/12 08:05:07;;;;;;;;;;;;;;;7.94;100.00;100355.81;4990932;28;19922;-87
2022/10/12 08:07:32;;;;;;;;;;;;;;;7.91;100.00;100355.88;4977114;28;19972;-87
2022/10/12 08:09:58;;;;;;;;;;;;;;;7.90;100.00;100359.44;4994509;28;19917;-87
2022/10/12 08:12:23;;;;;;;;;;;;;;;7.88;100.00;100362.13;4974385;28;20470;-87
2022/10/12 08:14:48;;;;;;;;;;;;;;;7.89;100.00;100362.97;4994431;28;20289;-87
2022/10/12 08:17:13;;;;;;;;;;;;;;;7.90;100.00;100356.81;4994201;28;20413;-87
2022/10/12 08:19:39;;;;;;;;;;;;;;;7.94;100.00;100355.81;4991237;28;19921;-87
2022/10/12 08:22:04;;;;;;;;;;;;;;;7.93;100.00;100359.34;4973558;28;19974;-87
2022/10/12 08:24:29;;;;;;;;;;;;;;;7.96;100.00;100357.53;4976211;28;20143;-91
2022/10/12 08:27:01;;;;;;;;;;;;;;;7.97;100.00;100366.31;4993034;28;19925;-91
2022/10/12 08:29:26;;;;;;;;;;;;;;;7.98;100.00;100363.63;4974747;28;19922;-87
2022/10/12 08:31:53;;;;;;;;;;;;;;;7.98;100.00;100360.13;4994272;28;19918;-87
2022/10/12 08:34:18;;;;;;;;;;;;;;;8.00;100.00;100361.81;4974721;28;19925;-87
2022/10/12 08:36:44;;;;;;;;;;;;;;;8.01;100.00;100360.06;4994296;28;19918;-87
2022/10/12 08:39:09;;;;;;;;;;;;;;;8.03;100.00;100358.25;4993915;28;20353;-86
2022/10/12 08:41:34;;;;;;;;;;;;;;;8.04;100.00;100356.47;4990754;28;20332;-87
2022/10/12 08:44:07;;;;;;;;;;;;;;;8.02;100.00;100353.88;5002653;28;19965;-86
2022/10/12 08:46:33;;;;;;;;;;;;;;;8.03;100.00;100358.25;5002550;28;19926;-87
2022/10/12 08:49:09;;;;;;;;;;;;;;;8.04;100.00;100357.38;5003219;28;20369;-86
2022/10/12 08:51:38;;;;;;;;;;;;;;;8.06;100.00;100360.81;5003714;28;20435;-87
2022/10/12 08:54:11;;;;;;;;;;;;;;;8.06;100.00;100358.19;4982871;28;19988;-86
2022/10/12 08:56:39;;;;;;;;;;;;;;;8.06;100.00;100360.81;4983039;28;20364;-87
2022/10/12 08:59:07;;;;;;;;;;;;;;;8.08;100.00;100352.88;5003273;28;20005;-87
2022/10/12 09:01:38;;;;;;;;;;;;;;;8.08;100.00;100356.38;5003164;28;20017;-87
2022/10/12 09:04:06;;;;;;;;;;;;;;;8.12;100.00;100359.78;4985238;28;19925;-87
2022/10/12 09:06:40;;;;;;;;;;;;;;;8.12;100.00;100358.03;5002965;28;20438;-87
2022/10/12 09:09:22;;;;;;;;;;;;;;;8.13;100.00;100362.41;4984111;28;19977;-86
2022/10/12 09:11:47;;;;;;;;;;;;;;;8.16;100.00;100366.75;4995226;28;19949;-87
2022/10/12 09:14:13;;;;;;;;;;;;;;;8.14;100.00;100358.00;5002880;28;19921;-87
2022/10/12 09:16:41;;;;;;;;;;;;;;;8.16;100.00;100362.31;5003412;28;19949;-86
2022/10/12 09:19:12;;;;;;;;;;;;;;;8.16;100.00;100362.31;5002709;28;20272;-87
2022/10/12 09:21:38;;;;;;;;;;;;;;;8.18;100.00;100362.28;4992075;28;20280;-86
2022/10/12 09:24:12;;;;;;;;;;;;;;;8.20;100.00;100368.44;4984824;28;19922;-87
2022/10/12 09:26:38;;;;;;;;;;;;;;;8.19;100.00;100362.25;5001489;28;19917;-87
2022/10/12 09:29:22;;;;;;;;;;;;;;;8.19;100.00;100364.91;4978126;28;19988;-87
2022/10/12 09:31:56;;;;;;;;;;;;;;;8.20;100.00;100373.72;5002961;28;20419;-87
2022/10/12 09:34:22;;;;;;;;;;;;;;;8.23;100.00;100372.75;4983670;28;20009;-91
2022/10/12 09:36:48;;;;;;;;;;;;;;;8.24;100.00;100370.06;5002942;28;19917;-87
2022/10/12 09:39:18;;;;;;;;;;;;;;;8.27;100.00;100364.72;5002826;28;19932;-88
2022/10/12 09:41:44;;;;;;;;;;;;;;;8.28;100.00;100371.75;5000784;28;20336;-87
2022/10/12 09:44:33;;;;;;;;;;;;;;;8.29;100.00;100362.03;5001596;28;19921;-87
2022/10/12 09:47:00;;;;;;;;;;;;;;;8.28;100.00;100357.66;5002952;28;19921;-87
2022/10/12 09:49:38;;;;;;;;;;;;;;;8.29;100.00;100362.91;5002474;28;19922;-87
2022/10/12 09:52:03;;;;;;;;;;;;;;;8.30;100.00;100359.38;4992303;28;19976;-87
2022/10/12 09:54:28;;;;;;;;;;;;;;;8.30;100.00;100362.00;4984605;28;19922;-87
2022/10/12 09:56:54;;;;;;;;;;;;;;;8.30;100.00;100364.66;4980873;28;19924;-87
2022/10/12 09:59:26;;;;;;;;;;;;;;;8.33;100.00;100363.72;4984550;28;19918;-87
2022/10/12 10:02:07;;;;;;;;;;;;;;;8.33;100.00;100361.06;5001524;28;19921;-87
2022/10/12 10:04:32;;;;;;;;;;;;;;;8.34;100.00;100365.44;4984194;28;19976;-87
2022/10/12 10:07:19;;;;;;;;;;;;;;;8.37;100.00;100365.34;4984621;28;19949;-91
2022/10/12 10:09:50;;;;;;;;;;;;;;;8.37;100.00;100357.44;5001571;28;19922;-90
2022/10/12 10:12:15;;;;;;;;;;;;;;;8.37;100.00;100360.06;5001389;28;19922;-88
2022/10/12 10:14:42;;;;;;;;;;;;;;;8.37;100.00;100360.06;4984388;28;19940;-87
2022/10/12 10:17:08;;;;;;;;;;;;;;;8.41;100.00;100351.19;4983993;28;19921;-87
2022/10/12 10:19:33;;;;;;;;;;;;;;;8.41;100.00;100355.56;5002575;28;19924;-91
2022/10/12 10:22:03;;;;;;;;;;;;;;;8.41;100.00;100356.47;5002193;28;19925;-87
2022/10/12 10:24:30;;;;;;;;;;;;;;;8.43;100.00;100349.41;4984085;28;19965;-87
2022/10/12 10:26:57;;;;;;;;;;;;;;;8.44;100.00;100351.16;5000809;28;19965;-87
2022/10/12 10:29:28;;;;;;;;;;;;;;;8.46;100.00;100349.31;4984642;28;20427;-87
2022/10/12 10:32:25;;;;;;;;;;;;;;;;;;;;;
2022/10/12 10:34:59;;;;;;;;;;;;;;;8.50;100.00;100358.91;5001400;28;19918;-87
2022/10/12 10:37:24;;;;;;;;;;;;;;;8.48;100.00;100354.56;4983188;28;19924;-87
2022/10/12 10:39:51;;;;;;;;;;;;;;;8.50;100.00;100356.28;4984124;28;20008;-88
2022/10/12 10:42:27;;;;;;;;;;;;;;;8.54;100.00;100352.63;4982087;28;19925;-87
2022/10/12 10:44:56;;;;;;;;;;;;;;;8.56;100.00;100351.75;4982686;28;20008;-87
2022/10/12 10:47:21;;;;;;;;;;;;;;;8.54;100.00;100352.63;5001985;28;19913;-87
2022/10/12 10:49:54;;;;;;;;;;;;;;;8.56;100.00;100349.09;4983389;28;20373;-87
2022/10/12 10:52:28;;;;;;;;;;;;;;;8.57;100.00;100340.25;4984077;28;19957;-91
2022/10/12 10:55:09;;;;;;;;;;;;;;;9.06;100.00;100336.28;4984039;28;20389;-88
2022/10/12 10:57:37;;;;;;;;;;;;;;;8.88;100.00;100338.53;4993002;28;19968;-86
2022/10/12 11:00:05;;;;;;;;;;;;;;;8.79;100.00;100328.22;5001770;28;19980;-87
2022/10/12 11:02:35;;;;;;;;;;;;;;;9.51;100.00;100330.59;5001498;28;19967;-86
2022/10/12 11:05:04;;;;;;;;;;;;;;;9.96;100.00;100327.44;4983946;28;20373;-82
2022/10/12 11:07:40;;;;;;;;;;;;;;;8.11;100.00;100336.97;5001571;28;19918;-86
2022/10/12 11:10:13;;;;;;;;;;;;;;;7.14;100.00;100331.16;4985180;28;19924;-87
2022/10/12 11:12:45;;;;;;;;;;;;;;;6.81;100.00;100329.16;4984952;28;20381;-88
2022/10/12 11:15:24;;;;;;;;;;;;;;;6.58;100.00;100326.94;4986647;28;19918;-87
2022/10/12 11:17:54;;;;;;;;;;;;;;;6.41;100.00;100334.25;5005133;28;19972;-88
2022/10/12 11:20:19;;;;;;;;;;;;;;;6.37;100.00;100328.19;4986766;28;19921;-88
2022/10/12 11:22:49;;;;;;;;;;;;;;;6.25;100.00;100328.38;4986296;28;19927;-88
2022/10/12 11:25:21;;;;;;;;;;;;;;;6.19;100.00;100332.00;4987392;28;19940;-90
2022/10/12 11:27:46;;;;;;;;;;;;;;;6.04;100.00;100321.72;4983819;28;19922;-87
2022/10/12 11:30:15;;;;;;;;;;;;;;;5.99;100.00;100325.28;4986819;28;20292;-89
2022/10/12 11:32:45;;;;;;;;;;;;;;;5.90;100.00;100322.75;4986056;28;19922;-90
2022/10/12 11:35:25;;;;;;;;;;;;;;;5.87;100.00;100327.19;4994876;28;20495;-88
2022/10/12 11:37:52;;;;;;;;;;;;;;;5.78;100.00;100323.81;4985642;28;19957;-87
2022/10/12 11:40:38;;;;;;;;;;;;;;;5.75;100.00;100323.00;4986136;28;20385;-89
2022/10/12 11:43:20;;;;;;;;;;;;;;;5.81;100.00;100318.50;5002637;28;20001;-94
2022/10/12 11:45:48;;;;;;;;;;;;;;;5.71;100.00;100316.03;4986464;28;20001;-89
2022/10/12 11:48:16;;;;;;;;;;;;;;;5.66;100.00;100317.84;5004667;28;19921;-88
2022/10/12 11:50:43;;;;;;;;;;;;;;;5.64;100.00;100316.09;4987000;28;19926;-90
2022/10/12 11:53:18;;;;;;;;;;;;;;;5.62;100.00;100306.53;4993217;28;20281;-87
2022/10/12 11:55:43;;;;;;;;;;;;;;;6.75;100.00;100313.47;5004107;28;19972;-87
2022/10/12 11:58:13;;;;;;;;;;;;;;;6.75;100.00;100307.31;5002235;28;19971;-88
2022/10/12 12:00:54;;;;;;;;;;;;;;;6.12;100.00;100311.94;5004708;28;20371;-90
2022/10/12 12:03:28;;;;;;;;;;;;;;;5.87;100.00;100308.78;5003170;28;20280;-89
2022/10/12 12:05:53;;;;;;;;;;;;;;;5.77;100.00;100311.53;5002637;28;19965;-89
2022/10/12 12:08:41;;;;;;;;;;;;;;;5.74;100.00;100302.84;4986491;28;19953;-94
2022/10/12 12:11:21;;;;;;;;;;;;;;;5.71;100.00;100300.25;4984802;28;20191;-89
2022/10/12 12:13:46;;;;;;;;;;;;;;;5.69;100.00;100302.03;4994477;28;19922;-91
2022/10/12 12:16:11;;;;;;;;;;;;;;;5.68;100.00;100292.41;4987216;28;19922;-87
2022/10/12 12:18:56;;;;;;;;;;;;;;;5.60;100.00;100298.66;4986124;28;19918;-90
2022/10/12 12:21:21;;;;;;;;;;;;;;;5.54;100.00;100297.88;4984680;28;19922;-86
2022/10/12 12:23:53;;;;;;;;;;;;;;;5.51;100.00;100295.28;4986284;28;19918;-88
2022/10/12 12:26:21;;;;;;;;;;;;;;;5.49;100.00;100295.31;4984896;28;19925;-89
2022/10/12 12:28:47;;;;;;;;;;;;;;;5.52;100.00;100290.00;4986587;28;19933;-85
2022/10/12 12:31:12;;;;;;;;;;;;;;;5.49;100.00;100284.81;4985028;28;19962;-86
2022/10/12 12:33:41;;;;;;;;;;;;;;;5.44;100.00;100281.34;5004658;28;19965;-87
2022/10/12 12:36:12;;;;;;;;;;;;;;;5.43;100.00;100280.47;4985579;28;19928;-87
2022/10/12 12:38:49;;;;;;;;;;;;;;;5.43;100.00;100275.22;4980506;28;19922;-90
2022/10/12 12:41:16;;;;;;;;;;;;;;;5.37;100.00;100266.56;4997782;28;19922;-89
2022/10/12 12:43:44;;;;;;;;;;;;;;;5.41;100.00;100265.66;4992315;28;20012;-86
2022/10/12 12:46:13;;;;;;;;;;;;;;;5.50;100.00;100270.75;5002493;28;19921;-86
2022/10/12 12:48:42;;;;;;;;;;;;;;;5.42;100.00;100260.34;4985510;28;20381;-87
2022/10/12 12:51:10;;;;;;;;;;;;;;;5.39;100.00;100257.78;4986005;28;19917;-85
2022/10/12 12:53:47;;;;;;;;;;;;;;;5.41;100.00;100266.50;5003821;28;20370;-90
2022/10/12 12:56:34;;;;;;;;;;;;;;;5.33;100.00;100265.75;5002892;28;20008;-87
2022/10/12 12:59:00;;;;;;;;;;;;;;;5.31;100.00;100269.28;5003458;28;19925;-92
2022/10/12 13:01:49;;;;;;;;;;;;;;;6.05;100.00;100269.06;4985783;28;19925;-88
2022/10/12 13:04:23;;;;;;;;;;;;;;;6.51;100.00;100275.28;4984951;28;19921;-91
2022/10/12 13:06:51;;;;;;;;;;;;;;;6.75;100.00;100273.97;5002729;28;19918;-87
2022/10/12 13:09:27;;;;;;;;;;;;;;;6.94;100.00;100270.94;5002725;28;20461;-87
2022/10/12 13:12:11;;;;;;;;;;;;;;;7.06;100.00;100273.34;4984075;28;19925;-85
2022/10/12 13:14:36;;;;;;;;;;;;;;;7.17;100.00;100278.41;4976683;28;19926;-90
2022/10/12 13:17:21;;;;;;;;;;;;;;;7.25;100.00;100271.19;4986390;28;19944;-85
2022/10/12 13:19:46;;;;;;;;;;;;;;;7.33;100.00;100269.25;4985429;28;19922;-83
2022/10/12 13:22:24;;;;;;;;;;;;;;;7.40;100.00;100267.34;4985270;28;19944;-84
2022/10/12 13:24:52;;;;;;;;;;;;;;;7.49;100.00;100264.50;5002549;28;19918;-86
2022/10/12 13:27:37;;;;;;;;;;;;;;;7.53;100.00;100263.56;4991210;28;19943;-84
2022/10/12 13:30:09;;;;;;;;;;;;;;;7.59;100.00;100268.66;4984408;28;19921;-87
2022/10/12 13:32:43;;;;;;;;;;;;;;;7.64;100.00;100261.53;5002326;28;19914;-86
2022/10/12 13:35:31;;;;;;;;;;;;;;;7.71;100.00;100258.75;4992438;28;19921;-86
2022/10/12 13:38:05;;;;;;;;;;;;;;;7.75;100.00;100255.97;4977123;28;20074;-87
2022/10/12 13:40:37;;;;;;;;;;;;;;;7.81;100.00;100245.28;4980293;28;19918;-84
2022/10/12 13:43:21;;;;;;;;;;;;;;;7.83;100.00;100237.34;4983292;28;19968;-85
2022/10/12 13:45:47;;;;;;;;;;;;;;;7.87;100.00;100243.44;4985099;28;20343;-87
2022/10/12 13:48:18;;;;;;;;;;;;;;;7.88;100.00;100237.22;4984719;28;20427;-87
2022/10/12 13:51:00;;;;;;;;;;;;;;;7.87;100.00;100238.16;4984591;28;19952;-86
2022/10/12 13:53:25;;;;;;;;;;;;;;;7.90;100.00;100240.72;4985290;28;19940;-88
2022/10/12 13:55:58;;;;;;;;;;;;;;;7.92;100.00;100241.53;5000824;28;19921;-84
2022/10/12 13:58:26;;;;;;;;;;;;;;;7.93;100.00;100240.59;4984864;28;20386;-87
2022/10/12 14:00:51;;;;;;;;;;;;;;;7.96;100.00;100244.06;5001187;28;19922;-91
2022/10/12 14:03:16;;;;;;;;;;;;;;;7.97;100.00;100239.63;5002596;28;19924;-86
2022/10/12 14:05:44;;;;;;;;;;;;;;;7.99;100.00;100232.53;5001065;28;20052;-84
2022/10/12 14:08:12;;;;;;;;;;;;;;;8.00;100.00;100223.72;5001316;28;19918;-85
2022/10/12 14:10:39;;;;;;;;;;;;;;;8.02;100.00;100224.53;4992276;28;20013;-85
2022/10/12 14:13:08;;;;;;;;;;;;;;;8.06;100.00;100223.59;4991421;28;19917;-90
2022/10/12 14:15:35;;;;;;;;;;;;;;;8.10;100.00;100227.84;4984268;28;20008;-86
2022/10/12 14:18:01;;;;;;;;;;;;;;;8.14;100.00;100226.03;4982803;28;19921;-83
2022/10/12 14:20:33;;;;;;;;;;;;;;;8.14;100.00;100229.53;4984330;28;20292;-85
2022/10/12 14:22:59;;;;;;;;;;;;;;;8.15;100.00;100220.72;4992581;28;19971;-86
2022/10/12 14:25:26;;;;;;;;;;;;;;;8.17;100.00;100221.53;4984795;28;20473;-85
2022/10/12 14:27:55;;;;;;;;;;;;;;;8.19;100.00;100214.44;5000535;28;19925;-85
2022/10/12 14:30:22;;;;;;;;;;;;;;;8.21;100.00;100221.44;4980769;28;19966;-87
2022/10/12 14:32:48;;;;;;;;;;;;;;;8.23;100.00;100230.19;4980209;28;20008;-85
2022/10/12 14:35:13;;;;;;;;;;;;;;;8.23;100.00;100223.13;4983787;28;20013;-87
2022/10/12 14:37:39;;;;;;;;;;;;;;;8.25;100.00;100220.44;4981963;28;19918;-87
2022/10/12 14:40:22;;;;;;;;;;;;;;;8.26;100.00;100211.63;4982899;28;19925;-86
2022/10/12 14:43:16;;;;;;;;;;;;;;;8.29;100.00;100208.91;4993717;28;19922;-86
2022/10/12 14:45:42;;;;;;;;;;;;;;;8.35;100.00;100204.31;4994226;28;19921;-85
2022/10/12 14:48:11;;;;;;;;;;;;;;;8.38;100.00;100208.66;4986559;28;19932;-89
2022/10/12 14:50:37;;;;;;;;;;;;;;;8.38;100.00;100206.03;4987321;28;19922;-86
2022/10/12 14:53:03;;;;;;;;;;;;;;;8.38;100.00;100198.09;4986858;28;19922;-86
2022/10/12 14:55:30;;;;;;;;;;;;;;;8.41;100.00;100203.31;4987887;28;19956;-90
2022/10/12 14:57:59;;;;;;;;;;;;;;;8.42;100.00;100202.38;4986312;28;20392;-92
2022/10/12 15:00:26;;;;;;;;;;;;;;;8.43;100.00;100201.50;4982533;28;19930;-85
2022/10/12 15:02:51;;;;;;;;;;;;;;;8.45;100.00;100198.84;4999426;28;20435;-88
2022/10/12 15:05:20;;;;;;;;;;;;;;;8.47;100.00;100202.28;5002859;28;19922;-90
2022/10/12 15:07:45;;;;;;;;;;;;;;;8.50;100.00;100200.44;4995137;28;19922;-89
2022/10/12 15:10:11;;;;;;;;;;;;;;;8.51;100.00;100201.31;4984532;28;20369;-85
2022/10/12 15:12:36;;;;;;;;;;;;;;;8.54;100.00;100194.16;5002186;28;19929;-85
2022/10/12 15:15:12;;;;;;;;;;;;;;;8.58;100.00;100184.38;5002696;28;19917;-86
2022/10/12 15:17:37;;;;;;;;;;;;;;;8.58;100.00;100194.94;4985499;28;19921;-87
2022/10/12 15:20:03;;;;;;;;;;;;;;;8.63;100.00;100189.53;4989168;28;20331;-86
2022/10/12 15:22:28;;;;;;;;;;;;;;;8.65;100.00;100195.66;4982221;28;19977;-86
2022/10/12 15:24:54;;;;;;;;;;;;;;;8.67;100.00;100189.38;4978083;28;19922;-89
2022/10/12 15:27:19;;;;;;;;;;;;;;;8.71;100.00;100198.97;5001384;28;19988;-85
2022/10/12 15:29:46;;;;;;;;;;;;;;;8.72;100.00;100197.19;5001441;28;20280;-86
2022/10/12 15:32:13;;;;;;;;;;;;;;;8.74;100.00;100198.00;4986901;28;19929;-87
2022/10/12 15:34:39;;;;;;;;;;;;;;;8.77;100.00;100192.63;5004949;28;19921;-87
2022/10/12 15:37:04;;;;;;;;;;;;;;;8.79;100.00;100182.91;4986290;28;19975;-86
2022/10/12 15:39:29;;;;;;;;;;;;;;;8.81;100.00;100175.78;4981637;28;19925;-86
2022/10/12 15:41:55;;;;;;;;;;;;;;;8.83;100.00;100183.66;5001521;28;20184;-85
2022/10/12 15:44:20;;;;;;;;;;;;;;;8.84;100.00;100178.34;5001172;28;19948;-85
2022/10/12 15:46:48;;;;;;;;;;;;;;;8.85;100.00;100174.75;4984563;28;20016;-88
2022/10/12 15:49:13;;;;;;;;;;;;;;;8.86;100.00;100175.66;5001974;28;19922;-85
2022/10/12 15:51:40;;;;;;;;;;;;;;;8.88;100.00;100176.47;5001357;28;19979;-90
2022/10/12 15:54:06;;;;;;;;;;;;;;;8.86;100.00;100171.22;4985446;28;20288;-85
2022/10/12 15:56:31;;;;;;;;;;;;;;;8.89;100.00;100160.56;4999611;28;19921;-88
2022/10/12 15:58:56;;;;;;;;;;;;;;;8.90;100.00;100167.59;4985632;28;20345;-90
2022/10/12 16:01:21;;;;;;;;;;;;;;;8.91;100.00;100169.31;5003778;28;20020;-84
2022/10/12 16:03:49;;;;;;;;;;;;;;;8.94;100.00;100172.78;4999873;28;19922;-88
2022/10/12 16:06:36;;;;;;;;;;;;;;;;;;;;;
2022/10/12 16:09:02;;;;;;;;;;;;;;;8.00;100.00;100182.38;5004899;28;19928;-86
2022/10/12 16:11:27;;;;;;;;;;;;;;;7.37;100.00;100193.59;5001147;28;20004;-89
2022/10/12 16:14:01;;;;;;;;;;;;;;;7.15;100.00;100190.56;5003776;28;19928;-92
2022/10/12 16:16:28;;;;;;;;;;;;;;;6.98;100.00;100183.91;4986532;28;19925;-86
2022/10/12 16:18:54;;;;;;;;;;;;;;;6.91;100.00;100182.34;5004068;28;19972;-87
2022/10/12 16:21:19;;;;;;;;;;;;;;;6.73;100.00;100173.91;5003335;28;20393;-84
2022/10/12 16:23:47;;;;;;;;;;;;;;;6.69;100.00;100174.00;4985904;28;19952;-91
2022/10/12 16:26:13;;;;;;;;;;;;;;;6.65;100.00;100174.97;5001810;28;20679;-86
2022/10/12 16:28:41;;;;;;;;;;;;;;;6.59;100.00;100162.81;5002768;28;19918;-92
2022/10/12 16:31:14;;;;;;;;;;;;;;;6.53;100.00;100173.47;5003580;28;19921;-89
2022/10/12 16:33:40;;;;;;;;;;;;;;;6.50;100.00;100173.50;5002039;28;20427;-87
2022/10/12 16:36:09;;;;;;;;;;;;;;;6.46;100.00;100161.28;4985920;28;20009;-86
2022/10/12 16:38:34;;;;;;;;;;;;;;;6.47;100.00;100163.03;5002997;28;19921;-88
2022/10/12 16:41:17;;;;;;;;;;;;;;;6.41;100.00;100169.28;5000405;28;19972;-93
2022/10/12 16:50:04;;;;;;;;;;;;;;;6.38;100.00;100171.13;4921640;29;20346;-87
2022/10/12 16:52:32;;;;;;;;;;;;;;;6.31;100.00;100175.63;4977386;28;20018;-90
2022/10/12 16:54:58;;;;;;;;;;;;;;;6.30;100.00;100180.03;4984860;28;19917;-87
2022/10/12 16:57:37;;;;;;;;;;;;;;;6.24;100.00;100172.25;5001815;28;20023;-94
2022/10/12 17:00:04;;;;;;;;;;;;;;;6.23;100.00;100162.63;4983382;28;19944;-91
2022/10/12 17:02:29;;;;;;;;;;;;;;;6.23;100.00;100160.00;4991873;28;19971;-90
2022/10/12 17:04:54;;;;;;;;;;;;;;;6.13;100.00;100161.06;5000959;28;19918;-89
2022/10/12 17:07:38;;;;;;;;;;;;;;;6.16;100.00;100163.66;4979740;28;19924;-93
2022/10/12 17:10:03;;;;;;;;;;;;;;;6.12;100.00;100164.59;4981765;28;19976;-88
2022/10/12 17:12:29;;;;;;;;;;;;;;;6.06;100.00;100175.22;4999232;28;19929;-90
2022/10/12 17:14:54;;;;;;;;;;;;;;;6.09;100.00;100181.28;5000798;28;19922;-87
2022/10/12 17:17:20;;;;;;;;;;;;;;;6.06;100.00;100183.13;4981332;28;19918;-88
2022/10/12 17:19:45;;;;;;;;;;;;;;;6.07;100.00;100172.56;4981349;28;20274;-87
2022/10/12 17:22:11;;;;;;;;;;;;;;;5.97;100.00;100171.88;4999484;28;19925;-86
2022/10/12 17:24:37;;;;;;;;;;;;;;;5.97;100.00;100171.88;4991648;28;19926;-87
2022/10/12 17:27:04;;;;;;;;;;;;;;;5.95;100.00;100175.38;4997929;28;20296;-87
2022/10/12 17:29:31;;;;;;;;;;;;;;;5.95;100.00;100184.16;4980640;28;19925;-87
2022/10/12 17:31:57;;;;;;;;;;;;;;;5.99;100.00;100179.72;4990616;28;19926;-87
2022/10/12 17:34:22;;;;;;;;;;;;;;;5.92;100.00;100183.31;4980838;28;19925;-91
2022/10/12 17:36:48;;;;;;;;;;;;;;;5.90;100.00;100177.22;4998775;28;20085;-85
2022/10/12 17:40:09;;;;;;;;;;;;;;;5.82;100.00;100187.88;4979504;28;19925;-94
2022/10/12 17:42:25;;;;;;;;;;;;;;;5.83;100.00;100195.72;4991100;28;19975;-85
2022/10/12 17:44:50;;;;;;;;;;;;;;;5.88;100.00;100192.16;4975459;28;19956;-86
2022/10/12 17:47:18;;;;;;;;;;;;;;;5.84;100.00;100183.47;4976297;28;20430;-91
2022/10/12 17:49:43;;;;;;;;;;;;;;;5.86;100.00;100188.72;4982835;28;20366;-87
2022/10/12 17:52:08;;;;;;;;;;;;;;;5.89;100.00;100194.78;5001716;28;19964;-86
2022/10/12 17:54:34;;;;;;;;;;;;;;;5.83;100.00;100200.13;5001520;28;20368;-87
2022/10/12 17:56:59;;;;;;;;;;;;;;;5.83;100.00;100190.47;5000573;28;19917;-88
2022/10/12 17:59:24;;;;;;;;;;;;;;;5.81;100.00;100186.16;5000352;28;20389;-87
2022/10/12 18:01:50;;;;;;;;;;;;;;;5.83;100.00;100184.34;5002402;28;19929;-89
2022/10/12 18:04:15;;;;;;;;;;;;;;;5.76;100.00;100196.75;4990649;28;19964;-86
2022/10/12 18:06:40;;;;;;;;;;;;;;;5.81;100.00;100194.91;5001648;28;20290;-87
2022/10/12 18:09:06;;;;;;;;;;;;;;;5.83;100.00;100197.50;5001913;28;19932;-86
2022/10/12 18:11:32;;;;;;;;;;;;;;;5.74;100.00;100197.66;4998815;28;19917;-86
2022/10/12 18:13:57;;;;;;;;;;;;;;;5.76;100.00;100204.63;5001762;28;20711;-89
2022/10/12 18:16:27;;;;;;;;;;;;;;;5.73;100.00;100198.56;4982680;28;19965;-85
2022/10/12 18:18:55;;;;;;;;;;;;;;;5.75;100.00;100202.03;4985999;28;19929;-88
2022/10/12 18:21:22;;;;;;;;;;;;;;;5.72;100.00;100202.06;5003964;28;19930;-87
2022/10/12 18:23:48;;;;;;;;;;;;;;;5.72;100.00;100202.94;5003296;28;20372;-88
2022/10/12 18:26:18;;;;;;;;;;;;;;;5.68;100.00;100203.91;4986012;28;19921;-90
2022/10/12 18:28:46;;;;;;;;;;;;;;;5.70;100.00;100204.72;4985333;28;20296;-91
2022/10/12 18:31:15;;;;;;;;;;;;;;;5.69;100.00;100217.91;4987251;28;19918;-91
2022/10/12 18:36:27;;;;;;;;;;;;;;;5.66;100.00;100210.06;4997124;28;19922;-89
2022/10/12 18:38:52;;;;;;;;;;;;;;;5.67;100.00;100201.28;5004631;28;20353;-89
2022/10/12 18:41:25;;;;;;;;;;;;;;;5.63;100.00;100203.97;5002189;28;19917;-85
2022/10/12 18:43:57;;;;;;;;;;;;;;;5.63;100.00;100196.06;4926823;28;1851411;-90
2022/10/12 18:46:24;;;;;;;;;;;;;;;5.67;100.00;100194.25;5005776;28;20329;-86
2022/10/12 18:48:49;;;;;;;;;;;;;;;5.70;100.00;100195.97;4994685;28;19940;-89
2022/10/12 18:51:20;;;;;;;;;;;;;;;5.66;100.00;100204.81;4987971;28;20377;-92
2022/10/12 18:53:46;;;;;;;;;;;;;;;5.64;100.00;100204.81;5005685;28;19964;-90
2022/10/12 18:56:11;;;;;;;;;;;;;;;5.63;100.00;100208.34;5004413;28;20190;-88
2022/10/12 18:58:37;;;;;;;;;;;;;;;5.59;100.00;100212.78;4989434;28;19918;-87
2022/10/12 19:01:06;;;;;;;;;;;;;;;5.62;100.00;100206.63;4984996;28;19921;-90
2022/10/12 19:03:31;;;;;;;;;;;;;;;5.60;100.00;100196.13;4994895;28;19921;-86
2022/10/12 19:06:04;;;;;;;;;;;;;;;5.69;100.00;100202.13;4985950;28;20400;-87
2022/10/12 19:08:29;;;;;;;;;;;;;;;6.31;100.00;100196.69;5005141;28;19924;-85
2022/10/12 19:10:54;;;;;;;;;;;;;;;6.64;100.00;100208.34;5004213;28;19918;-89
2022/10/12 19:13:20;;;;;;;;;;;;;;;6.86;100.00;100205.25;4987422;28;19920;-85
2022/10/12 19:15:45;;;;;;;;;;;;;;;6.99;100.00;100206.75;4987318;28;20400;-88
2022/10/12 19:18:10;;;;;;;;;;;;;;;7.10;100.00;100203.88;4986425;28;19914;-88
2022/10/12 19:20:36;;;;;;;;;;;;;;;7.20;100.00;100194.00;5005417;28;20403;-91
2022/10/12 19:23:01;;;;;;;;;;;;;;;7.30;100.00;100184.97;4987962;28;19976;-88
2022/10/12 19:25:26;;;;;;;;;;;;;;;7.36;100.00;100190.09;4987788;28;19922;-89
2022/10/12 19:27:51;;;;;;;;;;;;;;;7.43;100.00;100185.53;4985287;28;19917;-87